Aérodrome :
LOGIN :

S'inscrire | Disclaimer

   EN    FR    IT 

 










Légende :    VFR   VFR Marginal   IFR   IFR Intensif   IFR Très Intensif
Visi : 
Plafond : 
>= 8 km
>= 3000ft
5 à 8 km
1000 à 3000 ft
1500m à 5 km
500 à 1000 ft
800 à 1500m
200 à 500 ft
< 800m
< 200 ft
Symboles :   Orages  Brouillard  Fortes neiges  Fortes précipitations  Vent > 20 kt
SIGMETs :   Divers  Orages  Givrage  Turbulence  Onde Orograph.  Cendres Volcan.






- Altitude de l'aérodrome : 84 ft


LFBC - Cazaux

DERNIER METAR :
  • 031100Z AUTO 28006KT 230V340 9999 FEW041 BKN072 22/11 Q1024 NOSIG

METARs EXPIRÉS :
  • 031030Z AUTO 34005KT 270V010 9999 BKN034 BKN045 BKN066 20/12 Q1024 NOSIG
  • 031000Z AUTO 27004KT 220V320 CAVOK 21/13 Q1024 NOSIG
  • 030930Z AUTO VRB03KT 9999 FEW025 OVC068 20/13 Q1024 NOSIG
  • 030900Z AUTO VRB03KT CAVOK 18/13 Q1024 NOSIG
  • 030830Z AUTO 01004KT 320V050 9999 FEW046 BKN056 OVC068 18/13 Q1024 NOSIG

TAF TAF LFBC
Valide du 03 à 09h jusqu'au 04 à 09h UTC


030800Z 0309/0409 VRB03KT 9999 SCT035 BKN045
TEMPO 0312/0318 30010G20KT
PROB30
TEMPO 0402/0406 3000 MIFG



MET'MAP, la Météo Aéronautique d'un coup d'oeil ! - Copyright ORBIFLY Décembre 2007 - Disclaimer

ORBIFLY MET'MAP TEAM :

Programmation & Développement : Alexandra Zaïnal
Sur une idée originale de : Baudouin d'Aumeries
Assistance à la programmation : Marc-Olivier Méhu
Soutien technique & logistique : Manuel Goepfert

Contact : metmap@orbifly.com




SOURCES & CREDITS :

   NOAA